Time;durP1;ratioP1;P1;durP2;ratioP2;P2;SDS_P1;SDS_P2;PMS_P1;PMS_P2;Temp;Humidity;BMP_temperature;BMP_pressure;BME280_temperature;BME280_humidity;BME280_pressure;Samples;Min_cycle;Max_cycle;Signal;HPM_P1;HPM_P2
2023/04/14 06:37:54;;;;;;;562.10;540.07;;;5.50;99.90;;;;;;6224575;22;20415;-82
2023/04/14 09:29:36;;;;;;;8.00;2.53;;;16.80;38.00;;;;;;6271934;22;20460;-93
2023/04/14 09:34:57;;;;;;;8.67;2.80;;;16.00;37.70;;;;;;6262282;23;20437;-93
2023/04/14 09:38:07;;;;;;;9.60;2.50;;;16.30;38.70;;;;;;6273479;23;20486;-93
2023/04/14 09:46:28;;;;;;;9.00;2.73;;;17.50;33.90;;;;;;6259196;22;20440;-93
2023/04/14 09:49:08;;;;;;;10.13;2.93;;;17.30;32.80;;;;;;6174965;22;20449;-93
2023/04/14 09:51:44;;;;;;;9.67;3.20;;;17.90;28.80;;;;;;6269922;23;20826;-93
2023/04/14 09:58:23;;;;;;;8.23;2.80;;;18.70;26.10;;;;;;6242206;23;20429;-92
2023/04/14 10:21:36;;;;;;;7.80;2.13;;;19.20;19.10;;;;;;6229059;22;20449;-94
2023/04/14 10:24:05;;;;;;;7.53;1.80;;;19.30;19.30;;;;;;6272722;23;20517;-94
2023/04/14 10:26:37;;;;;;;6.40;2.13;;;19.10;16.20;;;;;;6271797;23;20419;-93
2023/04/14 10:29:12;;;;;;;6.87;2.30;;;19.50;14.20;;;;;;6275587;22;20822;-92
2023/04/14 10:31:42;;;;;;;15.20;1.93;;;19.30;17.20;;;;;;6276186;22;20395;-93
2023/04/14 10:41:58;;;;;;;8.13;2.17;;;20.00;13.20;;;;;;6233331;22;20523;-93
2023/04/14 10:44:28;;;;;;;7.80;2.47;;;19.30;10.50;;;;;;6271115;23;20808;-94
2023/04/14 10:46:56;;;;;;;8.20;2.43;;;20.10;10.60;;;;;;6271057;23;20406;-93
2023/04/14 10:49:30;;;;;;;7.80;2.20;;;20.20;8.10;;;;;;6260391;22;20461;-93
2023/04/14 10:52:00;;;;;;;9.27;2.60;;;20.40;11.40;;;;;;6271595;22;20414;-93
2023/04/14 10:54:28;;;;;;;8.10;2.23;;;21.00;7.20;;;;;;6272759;23;20433;-93
2023/04/14 10:57:14;;;;;;;10.60;2.30;;;21.00;5.30;;;;;;6271051;23;20411;-93
2023/04/14 10:59:46;;;;;;;6.20;2.03;;;22.00;4.80;;;;;;6270779;22;20430;-92
2023/04/14 11:02:24;;;;;;;7.47;2.40;;;21.40;1.90;;;;;;6261046;23;20808;-93
2023/04/14 11:05:07;;;;;;;7.90;2.00;;;20.70;5.00;;;;;;6263328;23;20411;-93
2023/04/14 11:07:47;;;;;;;6.83;1.90;;;19.80;4.40;;;;;;6261641;23;20395;-93
2023/04/14 11:10:33;;;;;;;6.60;1.40;;;20.20;2.90;;;;;;6270935;22;20492;-92
2023/04/14 11:13:14;;;;;;;11.63;2.77;;;21.10;1.00;;;;;;6270004;23;20398;-93
2023/04/14 11:15:51;;;;;;;5.57;1.80;;;21.50;1.00;;;;;;6271245;23;20715;-93
2023/04/14 11:18:32;;;;;;;6.20;1.60;;;21.40;1.00;;;;;;6271555;23;20437;-93
2023/04/14 11:21:12;;;;;;;8.20;1.60;;;20.70;1.00;;;;;;6270949;22;20456;-94
2023/04/14 11:26:23;;;;;;;6.10;1.80;;;21.10;1.00;;;;;;6241913;22;20822;-80
2023/04/14 11:28:52;;;;;;;6.90;2.07;;;21.50;1.00;;;;;;6244298;23;20400;-79
2023/04/14 11:31:19;;;;;;;6.47;1.77;;;21.70;1.00;;;;;;6245548;23;20445;-77
2023/04/14 11:33:49;;;;;;;7.60;2.10;;;21.50;1.00;;;;;;6244605;22;20439;-79
2023/04/14 11:36:18;;;;;;;7.13;2.07;;;21.50;1.00;;;;;;6245371;23;20474;-77
2023/04/14 11:38:46;;;;;;;5.70;1.60;;;21.30;1.00;;;;;;6245310;23;20414;-77
2023/04/14 11:41:15;;;;;;;8.87;1.97;;;20.70;1.00;;;;;;6244949;23;20461;-77
2023/04/14 11:43:45;;;;;;;11.00;2.43;;;20.60;1.00;;;;;;6244387;22;20522;-77
2023/04/14 11:46:17;;;;;;;7.87;2.17;;;20.50;1.00;;;;;;6244883;23;20406;-77
2023/04/14 11:48:44;;;;;;;8.53;2.10;;;20.00;1.00;;;;;;6219489;23;20397;-77
2023/04/14 11:51:11;;;;;;;5.83;2.40;;;19.60;1.00;;;;;;6245462;23;20416;-77
2023/04/14 11:53:39;;;;;;;7.00;1.93;;;19.50;1.00;;;;;;6245354;22;20428;-78
2023/04/14 11:56:07;;;;;;;6.20;1.50;;;20.60;1.00;;;;;;6244494;23;20469;-78
2023/04/14 11:58:34;;;;;;;7.47;1.90;;;20.90;1.00;;;;;;6244902;23;20446;-78
2023/04/14 12:01:01;;;;;;;8.03;2.57;;;21.50;1.00;;;;;;6218427;23;20413;-78
2023/04/14 12:03:31;;;;;;;6.97;1.87;;;21.70;1.00;;;;;;6245220;22;20765;-78
2023/04/14 12:06:02;;;;;;;9.30;2.17;;;22.00;1.00;;;;;;6243903;23;20892;-78
2023/04/14 12:08:30;;;;;;;7.50;2.30;;;22.40;1.00;;;;;;6245048;23;20395;-78
2023/04/14 12:10:57;;;;;;;10.50;1.90;;;22.50;1.00;;;;;;6254765;23;20414;-78
2023/04/14 12:13:25;;;;;;;6.00;1.83;;;22.40;1.00;;;;;;6244837;22;20426;-78
2023/04/14 12:15:53;;;;;;;7.03;1.90;;;21.40;1.00;;;;;;6244798;23;20407;-78
2023/04/14 12:18:20;;;;;;;7.50;2.00;;;21.30;1.00;;;;;;6245452;23;20410;-78
2023/04/14 12:20:53;;;;;;;7.40;2.47;;;21.00;1.00;;;;;;6245733;23;20811;-78
2023/04/14 12:23:20;;;;;;;10.30;2.30;;;22.60;1.00;;;;;;6217864;23;20437;-78
2023/04/14 12:25:50;;;;;;;8.57;2.30;;;22.90;1.00;;;;;;6245265;22;20421;-78
2023/04/14 12:28:19;;;;;;;10.77;2.23;;;23.10;1.00;;;;;;6245296;23;20407;-82
2023/04/14 12:30:51;;;;;;;8.47;1.70;;;23.30;1.00;;;;;;6245016;23;20399;-81
2023/04/14 12:33:22;;;;;;;8.07;1.63;;;23.80;1.00;;;;;;6244022;22;20449;-79
2023/04/14 12:35:52;;;;;;;6.33;1.57;;;25.10;1.00;;;;;;6245745;23;20927;-72
2023/04/14 12:38:27;;;;;;;13.13;2.03;;;23.70;1.00;;;;;;6245434;23;20501;-78
2023/04/14 12:40:55;;;;;;;10.80;2.87;;;22.90;1.00;;;;;;6255395;23;20430;-78
2023/04/14 12:43:28;;;;;;;7.90;1.63;;;23.00;1.00;;;;;;6245924;22;20497;-81
2023/04/14 12:46:02;;;;;;;5.03;1.27;;;23.60;1.00;;;;;;6245935;23;20926;-84
2023/04/14 12:48:47;;;;;;;6.63;1.73;;;23.70;1.00;;;;;;6246025;23;20410;-79
2023/04/14 12:51:19;;;;;;;9.07;1.83;;;23.80;1.00;;;;;;6244612;23;20419;-76
2023/04/14 12:53:48;;;;;;;6.20;1.83;;;22.50;1.00;;;;;;6245020;22;20442;-78
2023/04/14 12:56:18;;;;;;;7.93;3.03;;;21.20;1.00;;;;;;6245466;23;20521;-81
2023/04/14 12:58:47;;;;;;;5.77;1.20;;;21.10;1.00;;;;;;6246232;23;20410;-79
2023/04/14 13:01:16;;;;;;;4.67;1.07;;;21.00;1.00;;;;;;6247145;23;20759;-79
2023/04/14 13:03:50;;;;;;;5.30;1.77;;;20.80;1.00;;;;;;6245530;22;20429;-82
2023/04/14 13:06:19;;;;;;;5.80;1.20;;;20.50;1.00;;;;;;6244054;23;20478;-80
2023/04/14 13:08:48;;;;;;;6.07;1.47;;;20.70;1.00;;;;;;6245136;23;20440;-80
2023/04/14 13:11:17;;;;;;;6.53;1.73;;;21.00;1.00;;;;;;6244707;23;20424;-81
2023/04/14 13:13:44;;;;;;;5.70;1.33;;;20.80;1.00;;;;;;6244162;22;20444;-76
2023/04/14 13:16:11;;;;;;;4.40;1.20;;;20.70;1.00;;;;;;6244072;23;20469;-78
2023/04/14 13:18:40;;;;;;;6.00;1.50;;;20.90;1.00;;;;;;6244349;23;20495;-80
2023/04/14 13:21:07;;;;;;;7.10;1.23;;;22.00;1.00;;;;;;6244378;23;20468;-79
2023/04/14 13:23:36;;;;;;;6.17;1.30;;;22.60;1.00;;;;;;6244347;22;20453;-79
2023/04/14 13:26:03;;;;;;;8.03;1.77;;;23.80;1.00;;;;;;6243142;22;20429;-78
2023/04/14 13:28:30;;;;;;;7.10;1.63;;;22.00;1.00;;;;;;6244618;23;20413;-78
2023/04/14 13:30:57;;;;;;;5.50;1.10;;;21.10;1.00;;;;;;6244796;23;20499;-78
2023/04/14 13:33:26;;;;;;;6.17;1.77;;;19.70;1.00;;;;;;6243645;22;20435;-79
2023/04/14 13:35:54;;;;;;;7.57;1.60;;;19.40;1.00;;;;;;6243891;23;20411;-79
2023/04/14 13:38:21;;;;;;;8.10;2.73;;;20.00;1.00;;;;;;6217649;23;20816;-79
2023/04/14 13:40:49;;;;;;;8.70;2.43;;;20.70;1.00;;;;;;6243953;23;21125;-80
2023/04/14 13:43:18;;;;;;;11.07;1.20;;;20.70;1.00;;;;;;6254201;22;20489;-79
2023/04/14 13:45:45;;;;;;;7.80;1.40;;;22.20;1.00;;;;;;6244261;23;20493;-80
2023/04/14 13:48:12;;;;;;;6.00;1.27;;;22.60;1.00;;;;;;6243683;23;20496;-80
2023/04/14 13:50:39;;;;;;;5.70;1.13;;;21.70;1.00;;;;;;6244280;23;20421;-79
2023/04/14 13:53:09;;;;;;;7.50;2.17;;;20.60;1.00;;;;;;6243857;22;20521;-84
2023/04/14 13:55:38;;;;;;;6.70;1.73;;;21.00;1.00;;;;;;6243642;23;20444;-81
2023/04/14 13:58:06;;;;;;;5.83;1.60;;;22.70;1.00;;;;;;6243857;23;20497;-79
2023/04/14 14:00:33;;;;;;;7.30;1.90;;;23.50;1.00;;;;;;6244062;23;20909;-80
2023/04/14 14:03:01;;;;;;;8.07;2.27;;;22.10;1.00;;;;;;6244008;22;20496;-82
2023/04/14 14:05:30;;;;;;;9.00;1.63;;;21.50;1.00;;;;;;6253687;23;20449;-80
2023/04/14 14:07:57;;;;;;;6.80;1.60;;;20.40;1.00;;;;;;6242785;23;20443;-79
2023/04/14 14:10:24;;;;;;;4.83;1.50;;;20.00;1.00;;;;;;6253403;23;20823;-81
2023/04/14 14:12:52;;;;;;;4.93;1.50;;;19.30;1.00;;;;;;6192235;22;20771;-80
2023/04/14 14:15:20;;;;;;;7.87;1.87;;;18.80;1.00;;;;;;6216751;23;20433;-80
2023/04/14 14:17:48;;;;;;;11.43;3.20;;;18.70;1.00;;;;;;6241930;23;20917;-80
2023/04/14 14:20:18;;;;;;;5.00;1.53;;;18.60;1.00;;;;;;6216973;23;20418;-83
2023/04/14 14:22:45;;;;;;;6.50;1.60;;;18.10;1.00;;;;;;6243104;22;20420;-81
2023/04/14 14:25:12;;;;;;;6.40;1.60;;;17.50;1.00;;;;;;6243122;22;20931;-80
2023/04/14 14:27:39;;;;;;;5.97;1.50;;;17.60;1.00;;;;;;6243927;23;20414;-81
2023/04/14 14:30:08;;;;;;;5.90;1.50;;;17.10;1.00;;;;;;6243543;23;20449;-81
2023/04/14 14:32:41;;;;;;;6.10;1.63;;;16.90;1.00;;;;;;6215839;22;20412;-83
2023/04/14 14:35:12;;;;;;;5.90;1.23;;;16.60;1.00;;;;;;6243035;23;20516;-80
2023/04/14 14:37:43;;;;;;;6.30;1.50;;;16.70;1.00;;;;;;6244106;23;20415;-79
2023/04/14 14:40:12;;;;;;;4.20;1.10;;;16.90;1.00;;;;;;6243973;23;20399;-78
2023/04/14 14:42:41;;;;;;;5.83;1.60;;;17.00;1.00;;;;;;6243484;22;20485;-83
2023/04/14 14:45:09;;;;;;;8.60;2.10;;;17.30;1.00;;;;;;6243754;23;20413;-81
2023/04/14 14:47:38;;;;;;;4.53;1.20;;;17.50;1.00;;;;;;6243340;23;20418;-80
2023/04/14 14:50:08;;;;;;;8.50;2.60;;;18.00;1.00;;;;;;6244342;23;20413;-82
2023/04/14 14:52:35;;;;;;;5.37;1.37;;;18.60;1.00;;;;;;6243503;22;20413;-81
2023/04/14 14:55:05;;;;;;;8.90;2.13;;;19.20;1.00;;;;;;6243718;23;20498;-84
2023/04/14 14:57:32;;;;;;;6.17;1.20;;;19.80;1.00;;;;;;6243716;23;20414;-80
2023/04/14 14:59:58;;;;;;;5.07;1.30;;;19.50;1.00;;;;;;6253576;23;20760;-78
2023/04/14 15:02:30;;;;;;;7.70;2.20;;;20.00;1.00;;;;;;6253328;23;20756;-84
2023/04/14 15:04:58;;;;;;;7.00;1.83;;;20.80;1.00;;;;;;6243481;22;20461;-80
2023/04/14 15:07:25;;;;;;;5.87;1.80;;;22.10;1.00;;;;;;6242826;23;20502;-80
2023/04/14 15:09:52;;;;;;;7.23;1.53;;;22.10;1.00;;;;;;6245026;23;20420;-80
2023/04/14 15:12:19;;;;;;;7.67;1.37;;;21.40;1.00;;;;;;6245820;23;20429;-80
2023/04/14 15:14:46;;;;;;;8.23;1.27;;;21.80;1.00;;;;;;6244887;22;20760;-80
2023/04/14 15:17:15;;;;;;;5.33;1.40;;;21.00;1.00;;;;;;6244512;23;20408;-79
2023/04/14 15:19:43;;;;;;;6.50;1.90;;;20.40;1.00;;;;;;6245772;23;20414;-78
2023/04/14 15:22:12;;;;;;;9.17;1.60;;;19.20;1.00;;;;;;6245415;23;20415;-80
2023/04/14 15:24:38;;;;;;;5.70;1.10;;;18.90;1.00;;;;;;6245771;22;20527;-80
2023/04/14 15:27:05;;;;;;;9.50;3.00;;;18.60;1.00;;;;;;6245268;23;20412;-80
2023/04/14 15:29:32;;;;;;;6.53;1.50;;;18.50;1.00;;;;;;6246010;23;20479;-79
2023/04/14 15:31:59;;;;;;;6.20;1.77;;;18.10;1.00;;;;;;6244845;23;20441;-79
2023/04/14 15:34:27;;;;;;;5.20;1.20;;;17.70;1.00;;;;;;6244125;22;20456;-80
2023/04/14 15:36:53;;;;;;;6.77;1.60;;;17.40;1.00;;;;;;6245098;23;20419;-79
2023/04/14 15:39:22;;;;;;;6.17;1.23;;;16.90;1.00;;;;;;6245623;23;20418;-78
2023/04/14 15:41:49;;;;;;;5.70;1.57;;;16.50;1.00;;;;;;6245330;23;20475;-79
2023/04/14 15:44:16;;;;;;;9.73;1.60;;;16.50;1.00;;;;;;6245473;22;20483;-79
2023/04/14 15:46:43;;;;;;;9.07;1.27;;;16.30;1.00;;;;;;6244516;23;20415;-79
2023/04/14 15:49:10;;;;;;;6.33;1.60;;;17.20;1.00;;;;;;6245422;23;20412;-79
2023/04/14 15:51:36;;;;;;;5.93;1.30;;;18.40;1.00;;;;;;6245842;23;20753;-79
2023/04/14 15:54:03;;;;;;;9.20;1.40;;;18.70;1.00;;;;;;6245297;22;20435;-79
2023/04/14 15:56:32;;;;;;;6.90;1.30;;;19.30;1.00;;;;;;6245242;23;20424;-78
2023/04/14 15:58:58;;;;;;;5.73;1.10;;;19.90;1.00;;;;;;6245342;23;20419;-79
2023/04/14 16:01:25;;;;;;;7.23;2.13;;;19.30;1.00;;;;;;6245065;23;20414;-80
2023/04/14 16:03:52;;;;;;;7.47;1.83;;;18.70;1.00;;;;;;6245489;22;20446;-79
2023/04/14 16:06:19;;;;;;;6.00;1.60;;;18.20;1.00;;;;;;6243954;23;20447;-78
2023/04/14 16:08:46;;;;;;;7.30;1.33;;;19.00;1.00;;;;;;6244602;23;20419;-79
2023/04/14 16:11:16;;;;;;;5.87;1.30;;;20.00;1.00;;;;;;6245416;23;20516;-79
2023/04/14 16:13:44;;;;;;;5.33;1.40;;;20.10;1.00;;;;;;6255537;22;20764;-79
2023/04/14 16:16:12;;;;;;;7.57;1.80;;;20.80;1.00;;;;;;6217829;23;20434;-79
2023/04/14 16:18:39;;;;;;;7.10;1.50;;;21.00;1.00;;;;;;6244793;23;20494;-79
2023/04/14 16:21:05;;;;;;;6.40;1.37;;;22.20;1.00;;;;;;6245645;23;20412;-79
2023/04/14 16:23:32;;;;;;;5.20;1.07;;;22.40;1.00;;;;;;6244916;22;20511;-79
2023/04/14 16:25:59;;;;;;;4.00;1.00;;;22.40;1.00;;;;;;6244770;22;20456;-79
2023/04/14 16:28:26;;;;;;;9.57;1.90;;;22.90;1.00;;;;;;6255171;23;20815;-79
2023/04/14 16:30:54;;;;;;;5.00;1.30;;;23.20;1.00;;;;;;6245262;23;20420;-79
2023/04/14 16:33:21;;;;;;;5.50;1.30;;;23.60;1.00;;;;;;6254619;22;21024;-80
2023/04/14 16:35:48;;;;;;;5.70;1.10;;;23.10;1.00;;;;;;6244489;23;20476;-79
2023/04/14 16:38:15;;;;;;;6.70;1.43;;;23.00;1.00;;;;;;6254161;23;20442;-79
2023/04/14 16:40:42;;;;;;;5.07;1.17;;;22.30;1.00;;;;;;6244844;23;20445;-80
2023/04/14 16:43:09;;;;;;;4.83;1.00;;;22.10;1.00;;;;;;6245082;22;20459;-79
2023/04/14 16:45:36;;;;;;;5.70;1.27;;;21.50;1.00;;;;;;6244117;23;20508;-79
2023/04/14 16:48:04;;;;;;;8.43;1.30;;;21.20;1.00;;;;;;6244444;23;20938;-80
2023/04/14 16:50:31;;;;;;;5.43;1.10;;;20.30;1.00;;;;;;6244824;23;20416;-78
2023/04/14 16:52:58;;;;;;;6.20;1.20;;;19.70;1.00;;;;;;6217756;22;20840;-78
2023/04/14 16:55:25;;;;;;;4.50;1.10;;;19.00;1.00;;;;;;6243838;23;20461;-78
2023/04/14 16:57:52;;;;;;;5.67;1.13;;;18.10;1.00;;;;;;6217388;23;20426;-79
2023/04/14 17:00:20;;;;;;;6.27;1.30;;;17.30;1.00;;;;;;6244400;23;20470;-79
2023/04/14 17:02:48;;;;;;;5.07;1.30;;;16.60;1.00;;;;;;6243815;22;20439;-80
2023/04/14 17:05:18;;;;;;;5.43;1.40;;;15.90;1.60;;;;;;6243268;23;20500;-82
2023/04/14 17:07:45;;;;;;;6.30;1.30;;;15.40;2.90;;;;;;6217845;23;20754;-81
2023/04/14 17:10:12;;;;;;;7.17;1.40;;;15.10;4.70;;;;;;6216788;23;20442;-79
2023/04/14 17:12:41;;;;;;;7.70;1.50;;;14.60;8.30;;;;;;6244213;22;20439;-79
2023/04/14 17:15:11;;;;;;;5.00;1.40;;;14.30;10.60;;;;;;6243693;23;20961;-77
2023/04/14 17:17:38;;;;;;;4.60;1.30;;;13.90;12.20;;;;;;6253860;23;20430;-78
2023/04/14 17:20:06;;;;;;;4.80;1.13;;;13.70;16.80;;;;;;6243977;23;20479;-80
2023/04/14 17:22:35;;;;;;;6.70;1.37;;;13.40;21.20;;;;;;6243374;23;20411;-79
2023/04/14 17:25:07;;;;;;;6.43;1.63;;;13.20;23.70;;;;;;6243955;22;20411;-79
2023/04/14 17:27:34;;;;;;;5.90;1.80;;;13.10;25.70;;;;;;6244177;23;20938;-79
2023/04/14 17:30:02;;;;;;;6.17;1.57;;;12.90;29.10;;;;;;6243927;23;20494;-79
2023/04/14 17:32:30;;;;;;;6.40;1.20;;;12.60;35.10;;;;;;6243129;23;20749;-79
2023/04/14 17:34:56;;;;;;;6.67;1.63;;;12.40;42.40;;;;;;6244329;22;20470;-79
2023/04/14 17:37:24;;;;;;;8.87;1.70;;;12.50;41.40;;;;;;6193383;23;20411;-79
2023/04/14 17:39:54;;;;;;;8.90;1.63;;;13.00;37.40;;;;;;6245064;23;20473;-79
2023/04/14 17:42:23;;;;;;;9.40;1.63;;;13.50;35.10;;;;;;6243534;23;20434;-78
2023/04/14 17:44:51;;;;;;;5.27;1.60;;;13.90;37.70;;;;;;6244689;22;20486;-78
2023/04/14 17:47:20;;;;;;;6.03;2.00;;;13.50;39.30;;;;;;6243872;23;20494;-79
2023/04/14 17:49:51;;;;;;;7.00;1.53;;;13.30;39.00;;;;;;6243780;23;20411;-79
2023/04/14 17:52:19;;;;;;;5.63;1.70;;;13.40;33.40;;;;;;6244433;23;20453;-79
2023/04/14 17:54:48;;;;;;;4.90;1.80;;;13.80;31.10;;;;;;6217239;23;21038;-80
2023/04/14 17:57:17;;;;;;;6.23;1.80;;;14.40;30.10;;;;;;6244411;23;20415;-79
2023/04/14 17:59:45;;;;;;;11.53;1.87;;;14.80;30.50;;;;;;6254520;23;20419;-79
2023/04/14 18:02:14;;;;;;;13.93;1.60;;;14.80;28.90;;;;;;6244276;23;20437;-79
2023/04/14 18:04:41;;;;;;;6.63;1.57;;;14.20;30.00;;;;;;6217331;23;20514;-78
2023/04/14 18:07:08;;;;;;;10.57;2.03;;;13.40;32.10;;;;;;6243425;23;20407;-78
2023/04/14 18:09:36;;;;;;;6.50;1.80;;;12.70;37.50;;;;;;6243551;23;20419;-80
2023/04/14 18:12:03;;;;;;;5.43;1.93;;;12.00;43.60;;;;;;6244169;23;20407;-80
2023/04/14 18:14:34;;;;;;;7.90;2.53;;;11.60;47.20;;;;;;6244505;22;20459;-79
2023/04/14 18:17:02;;;;;;;9.07;2.23;;;11.20;50.70;;;;;;6243253;23;20490;-79
2023/04/14 18:19:29;;;;;;;8.97;2.77;;;10.80;53.20;;;;;;6217268;23;20903;-81
2023/04/14 18:21:56;;;;;;;9.50;2.77;;;10.50;56.70;;;;;;6244688;23;20415;-80
2023/04/14 18:24:23;;;;;;;8.40;2.57;;;10.20;58.50;;;;;;6217193;22;20435;-81
2023/04/14 18:26:51;;;;;;;11.03;2.37;;;9.90;61.80;;;;;;6243797;23;20407;-81
2023/04/14 18:29:22;;;;;;;8.53;1.70;;;9.70;61.60;;;;;;6243792;23;20407;-80
2023/04/14 18:31:51;;;;;;;5.50;1.97;;;9.30;64.80;;;;;;6244527;23;20451;-81
2023/04/14 18:34:18;;;;;;;8.67;2.17;;;9.00;67.30;;;;;;6243713;22;20485;-80
2023/04/14 18:36:45;;;;;;;6.30;2.43;;;8.70;74.30;;;;;;6243512;23;20894;-80
2023/04/14 18:39:15;;;;;;;7.27;2.27;;;8.60;84.00;;;;;;6217711;23;20762;-80
2023/04/14 18:41:42;;;;;;;11.83;2.37;;;8.50;90.60;;;;;;6243590;23;20411;-81
2023/04/14 18:44:09;;;;;;;9.20;2.40;;;8.10;90.70;;;;;;6245782;22;20430;-80
2023/04/14 18:46:40;;;;;;;4.63;2.30;;;7.80;91.80;;;;;;6245867;23;20435;-81
2023/04/14 18:49:12;;;;;;;7.43;2.27;;;7.80;93.80;;;;;;6246462;23;20450;-81
2023/04/14 18:51:48;;;;;;;9.83;2.37;;;7.50;94.40;;;;;;6219347;23;20484;-86
2023/04/14 18:54:16;;;;;;;11.13;2.93;;;7.40;95.40;;;;;;6246343;22;20462;-80
2023/04/14 18:56:50;;;;;;;6.67;2.60;;;7.20;97.00;;;;;;6246065;23;20407;-80
2023/04/14 18:59:17;;;;;;;7.10;2.90;;;7.20;98.80;;;;;;6255899;23;20429;-81
2023/04/14 19:01:45;;;;;;;6.87;3.03;;;7.00;99.20;;;;;;6246320;23;20411;-81
2023/04/14 19:04:45;;;;;;;7.67;3.50;;;6.80;98.80;;;;;;6244809;22;20485;-80
2023/04/14 19:07:18;;;;;;;8.83;4.17;;;6.70;98.50;;;;;;6151793;23;21027;-81
2023/04/14 19:09:47;;;;;;;12.23;7.70;;;6.80;99.90;;;;;;6213829;23;20419;-81
2023/04/14 19:12:17;;;;;;;8.37;7.50;;;6.70;99.90;;;;;;6245525;23;20472;-81
2023/04/14 19:14:47;;;;;;;11.23;7.90;;;6.60;99.90;;;;;;6218874;23;20470;-81
2023/04/14 19:17:15;;;;;;;7.70;5.03;;;6.60;99.90;;;;;;6245249;23;20407;-81
2023/04/14 19:19:42;;;;;;;5.97;3.47;;;6.50;99.90;;;;;;6246224;23;20438;-81
2023/04/14 19:22:11;;;;;;;10.53;3.37;;;6.50;99.90;;;;;;6255764;23;20459;-80
2023/04/14 19:24:39;;;;;;;6.97;3.20;;;6.50;99.90;;;;;;6221092;23;20497;-81
2023/04/14 19:27:11;;;;;;;5.67;3.60;;;6.60;99.90;;;;;;6245056;22;20439;-81
2023/04/14 19:29:38;;;;;;;10.23;4.60;;;6.60;99.90;;;;;;6245745;22;20484;-80
2023/04/14 19:32:07;;;;;;;11.53;5.13;;;6.30;99.90;;;;;;6243983;23;20489;-80
2023/04/14 19:34:36;;;;;;;8.43;4.30;;;6.20;99.90;;;;;;6245534;22;20431;-80
2023/04/14 19:37:06;;;;;;;11.80;4.60;;;6.20;99.90;;;;;;6244650;22;20434;-80
2023/04/14 19:39:35;;;;;;;7.70;4.90;;;6.10;99.90;;;;;;6245145;22;20422;-80
2023/04/14 19:42:09;;;;;;;7.17;4.33;;;6.00;99.90;;;;;;6245542;23;20498;-80
2023/04/14 19:47:08;;;;;;;5.60;2.97;;;6.10;99.90;;;;;;6245072;22;20797;-80
2023/04/14 19:49:40;;;;;;;10.03;3.90;;;6.40;99.90;;;;;;6245478;23;20486;-82
2023/04/14 19:52:08;;;;;;;34.60;15.53;;;6.40;96.80;;;;;;6245194;23;20736;-80
2023/04/14 19:57:39;;;;;;;6.50;3.10;;;7.10;90.20;;;;;;6228684;22;20455;-80
2023/04/14 20:00:52;;;;;;;9.43;3.53;;;7.10;90.10;;;;;;6244980;23;20950;-80
2023/04/14 21:35:12;;;;;;;39.90;37.63;;;5.80;99.90;;;;;;6259905;22;20772;-81
2023/04/14 21:37:40;;;;;;;48.03;45.43;;;5.60;99.90;;;;;;6244277;23;20399;-81
2023/04/14 21:40:10;;;;;;;57.47;54.70;;;5.50;99.90;;;;;;6255042;23;20418;-81
2023/04/14 21:42:40;;;;;;;52.97;49.97;;;5.50;99.90;;;;;;6254246;22;20489;-81
2023/04/14 21:45:14;;;;;;;31.70;29.33;;;5.70;99.90;;;;;;6217341;23;20494;-81
2023/04/14 21:47:42;;;;;;;15.00;13.50;;;5.80;99.90;;;;;;6255135;23;20404;-81
2023/04/14 21:55:38;;;;;;;10.00;9.00;;;5.60;99.90;;;;;;6244224;23;20449;-81
2023/04/14 21:58:07;;;;;;;18.93;17.63;;;5.40;99.90;;;;;;6218574;23;20411;-81
2023/04/14 22:00:35;;;;;;;25.27;23.77;;;5.30;99.90;;;;;;6244132;23;20411;-81
2023/04/14 22:03:06;;;;;;;27.93;26.27;;;5.20;99.90;;;;;;6217284;23;20515;-81
2023/04/14 22:05:37;;;;;;;64.30;61.57;;;5.00;99.90;;;;;;6217310;23;20797;-80
2023/04/14 22:08:06;;;;;;;122.17;117.53;;;5.00;99.90;;;;;;6244349;23;20396;-81
2023/04/14 22:10:42;;;;;;;141.70;136.20;;;5.00;99.90;;;;;;6244647;23;20450;-81
2023/04/14 22:13:11;;;;;;;114.07;109.73;;;4.70;99.90;;;;;;6244290;22;20517;-81
2023/04/14 22:15:45;;;;;;;126.03;121.07;;;4.70;99.90;;;;;;6243979;23;20430;-81
2023/04/14 22:18:15;;;;;;;140.37;134.77;;;4.70;99.90;;;;;;6255973;23;20763;-81
2023/04/14 22:20:45;;;;;;;161.37;155.13;;;4.40;99.90;;;;;;6220113;23;20415;-80
2023/04/14 22:23:14;;;;;;;229.30;220.37;;;4.50;99.90;;;;;;6229693;23;20453;-81
2023/04/14 22:25:48;;;;;;;286.67;275.67;;;4.40;99.90;;;;;;6246267;23;20453;-80
2023/04/14 22:28:18;;;;;;;282.77;271.53;;;4.30;99.90;;;;;;6245949;23;20415;-80
2023/04/14 22:30:55;;;;;;;234.27;224.47;;;4.30;99.90;;;;;;6207432;23;20467;-81
2023/04/14 22:33:26;;;;;;;284.43;272.83;;;4.20;99.90;;;;;;6245497;22;20488;-81
2023/04/14 22:35:58;;;;;;;300.60;288.33;;;4.10;99.90;;;;;;6228693;23;20794;-81
2023/04/14 22:38:29;;;;;;;301.87;289.47;;;4.10;99.90;;;;;;6244579;23;20415;-81
2023/04/14 22:41:01;;;;;;;283.00;271.03;;;4.00;99.90;;;;;;6246524;22;20410;-80
2023/04/14 22:43:37;;;;;;;285.53;271.90;;;4.00;99.90;;;;;;6244306;22;20493;-80
2023/04/14 22:46:07;;;;;;;269.23;257.73;;;3.90;99.90;;;;;;6244640;23;20427;-80
2023/04/14 22:48:36;;;;;;;244.90;233.90;;;3.90;99.90;;;;;;6243685;23;20494;-81
2023/04/14 22:51:08;;;;;;;430.30;409.40;;;3.80;99.90;;;;;;6244976;23;20419;-80
2023/04/14 22:53:45;;;;;;;479.80;454.50;;;3.90;99.90;;;;;;6245482;22;20435;-81
2023/04/14 22:56:27;;;;;;;485.53;460.63;;;3.90;99.90;;;;;;6244374;23;20485;-80
2023/04/14 22:59:04;;;;;;;483.10;458.23;;;3.90;99.90;;;;;;6246352;22;20433;-81
2023/04/14 23:01:32;;;;;;;529.70;499.53;;;3.80;99.90;;;;;;6244515;23;20418;-81
2023/04/14 23:04:01;;;;;;;573.37;539.33;;;3.70;99.90;;;;;;6244196;22;20467;-80
2023/04/14 23:06:59;;;;;;;585.83;549.83;;;3.80;99.90;;;;;;6244376;23;20442;-81
2023/04/14 23:09:29;;;;;;;606.60;569.77;;;3.70;99.90;;;;;;6256192;23;20395;-81
2023/04/14 23:11:57;;;;;;;661.87;619.13;;;3.70;99.90;;;;;;6245667;22;20490;-80
2023/04/14 23:14:25;;;;;;;701.20;654.80;;;3.70;99.90;;;;;;6245920;22;20461;-81
2023/04/14 23:17:01;;;;;;;722.70;675.27;;;3.70;99.90;;;;;;6255586;23;20407;-80
2023/04/14 23:19:31;;;;;;;737.03;688.93;;;3.60;99.90;;;;;;6245413;22;20497;-80
2023/04/14 23:22:03;;;;;;;739.50;690.80;;;3.50;99.90;;;;;;6245408;23;20458;-80
2023/04/14 23:24:34;;;;;;;724.87;677.53;;;3.30;99.90;;;;;;6244388;22;20730;-80
2023/04/14 23:27:06;;;;;;;731.93;677.93;;;3.30;99.90;;;;;;6245298;22;20770;-80
2023/04/14 23:29:34;;;;;;;716.90;668.27;;;3.60;99.90;;;;;;6245551;22;20402;-80
2023/04/14 23:32:03;;;;;;;682.40;637.60;;;3.70;99.90;;;;;;6245441;22;20930;-80
2023/04/14 23:34:31;;;;;;;632.60;593.27;;;3.80;99.90;;;;;;6243790;22;20442;-81
2023/04/14 23:37:02;;;;;;;623.03;587.10;;;3.80;99.90;;;;;;6243809;23;20793;-81
2023/04/14 23:39:31;;;;;;;532.00;504.77;;;3.80;99.90;;;;;;6244167;23;20746;-80
2023/04/14 23:42:00;;;;;;;494.67;471.80;;;3.70;99.90;;;;;;6245549;23;20419;-81
2023/04/14 23:44:28;;;;;;;500.87;477.53;;;3.60;99.90;;;;;;6244416;22;20431;-81
2023/04/14 23:46:58;;;;;;;481.73;459.80;;;3.70;99.90;;;;;;6243809;23;20437;-80
2023/04/14 23:49:27;;;;;;;511.30;487.67;;;3.60;99.90;;;;;;6244761;23;20419;-81
2023/04/14 23:52:04;;;;;;;613.27;581.97;;;3.50;99.90;;;;;;6244674;23;20920;-82
2023/04/14 23:54:35;;;;;;;609.93;579.27;;;3.50;99.90;;;;;;6245402;22;20437;-81
2023/04/14 23:57:32;;;;;;;617.87;586.90;;;3.40;99.90;;;;;;6244995;22;20407;-81
